Moody, Maine
Current Conditions -  °F | °C
As of 4:15 PM on Friday 31 Oct 2014 (Local Time) from KSFM Reporting Station
Broken Clouds Broken Clouds  
Wind Chill: 46°   Ceiling: 6000
Heat Index: 48°   Visibility: 10mi
Dew Point: 30°   Wind: 5mph
Humidity: 50%   Direction: 120°ESE
Pressure: 30.01"   Gusts: NA
Location:  43.27°N, 70.6°W
Report Text: KSFM 312015Z AUTO 12004KT 10SM BKN060 09/M01 A3001 RMK AO1
Loading
Personal Weather Stations






























Interactive Weather Map
Tropical Storm Tracking
New forecast layout! Learn more

10-Day Weather Forecast

Advertisements
Track Severe Weather on mobile